createdAt,value
2024-01-19T11:00:42.932Z,99616.63
2024-01-19T11:05:47.515Z,99893.34
2024-01-19T11:10:50.884Z,99822.75
2024-01-19T11:16:00.189Z,99632.06
2024-01-19T11:21:03.454Z,99657.59
2024-01-19T11:26:11.400Z,99713.69
2024-01-19T11:31:19.815Z,99668.44
2024-01-19T11:36:49.732Z,99639.06
2024-01-19T11:41:52.823Z,99502.81
2024-01-19T11:46:55.940Z,99468.97
2024-01-19T11:52:02.167Z,99586.00
2024-01-19T11:57:24.746Z,99671.03
2024-01-19T12:02:33.165Z,99504.84
2024-01-19T12:07:36.360Z,99558.47
2024-01-19T12:12:40.905Z,99697.91
2024-01-19T12:17:45.917Z,99789.44
2024-01-19T12:22:57.152Z,99726.56
2024-01-19T12:28:06.950Z,99608.44
2024-01-19T12:33:32.672Z,99713.03
2024-01-19T12:38:36.909Z,99658.53
2024-01-19T12:43:40.070Z,99732.06
2024-01-19T12:48:56.649Z,99478.88
2024-01-19T12:54:00.633Z,99541.09
2024-01-19T12:59:09.040Z,99575.75
2024-01-19T13:04:14.396Z,99620.22
2024-01-19T13:09:18.756Z,99709.63
2024-01-19T13:14:28.086Z,99723.31
2024-01-19T13:19:31.943Z,99727.56
2024-01-19T13:24:34.780Z,99546.63
2024-01-19T13:29:38.554Z,99689.59
2024-01-19T13:34:41.718Z,99701.53
2024-01-19T13:39:44.503Z,99789.97
2024-01-19T13:44:47.970Z,99545.56
2024-01-19T13:49:51.672Z,99524.44
2024-01-19T13:54:54.799Z,99768.09
2024-01-19T13:59:58.724Z,99627.19
2024-01-19T14:05:04.804Z,99747.88
2024-01-19T14:10:08.836Z,99656.75
2024-01-19T14:15:11.996Z,99699.50
2024-01-19T14:20:14.940Z,99655.41
2024-01-19T14:25:17.785Z,99720.91
2024-01-19T14:30:20.906Z,99758.88
2024-01-19T14:35:24.777Z,99616.50
2024-01-19T14:40:28.027Z,99620.03
2024-01-19T14:45:30.919Z,99626.75
2024-01-19T14:50:34.623Z,99663.69
2024-01-19T14:55:38.033Z,99583.47
2024-01-19T15:00:41.181Z,99601.09
2024-01-19T15:05:44.311Z,99724.47
2024-01-19T15:10:48.179Z,99620.19
2024-01-19T15:15:51.106Z,99695.19
2024-01-19T15:20:53.909Z,99697.59
2024-01-19T15:25:56.788Z,99790.34
2024-01-19T15:30:59.916Z,99683.69
2024-01-19T15:36:04.249Z,99637.56
2024-01-19T15:41:07.121Z,99641.47
2024-01-19T15:46:10.234Z,99874.25
2024-01-19T15:51:28.116Z,99756.91
2024-01-19T15:56:37.286Z,99648.47
2024-01-19T16:01:42.036Z,99683.47
2024-01-19T16:06:45.227Z,99685.78
2024-01-19T16:11:49.698Z,99699.66
2024-01-19T16:16:53.603Z,99560.47
2024-01-19T16:21:57.560Z,99671.34
2024-01-19T16:27:01.955Z,99898.84
2024-01-19T16:32:05.581Z,99727.41
2024-01-19T16:37:08.645Z,99691.44
2024-01-19T16:42:11.476Z,99704.50
2024-01-19T16:47:14.447Z,99733.81
2024-01-19T16:52:17.559Z,99711.19
2024-01-19T16:57:20.665Z,99774.50
2024-01-19T17:02:23.738Z,99780.78
2024-01-19T17:07:26.764Z,99773.63
2024-01-19T17:12:30.588Z,99791.59
2024-01-19T17:17:33.467Z,99696.34
2024-01-19T17:22:36.458Z,99719.50
2024-01-19T17:27:39.578Z,99862.28
2024-01-19T17:32:42.502Z,99842.91
2024-01-19T17:37:45.837Z,99794.97
2024-01-19T17:42:49.235Z,99761.22
2024-01-19T17:47:53.885Z,99762.94
2024-01-19T17:52:57.566Z,99741.00
2024-01-19T17:58:00.414Z,99753.84
2024-01-19T18:03:06.591Z,99764.38
2024-01-19T18:08:09.689Z,99792.63
2024-01-19T18:13:12.645Z,99804.97
2024-01-19T18:18:24.169Z,99882.56
2024-01-19T18:23:33.975Z,99835.59
2024-01-19T18:28:37.502Z,99795.03
2024-01-19T18:33:42.680Z,99861.75
2024-01-19T18:38:46.775Z,99782.31
2024-01-19T18:43:49.592Z,99822.28
2024-01-19T18:48:52.514Z,99916.69
2024-01-19T18:53:55.445Z,99694.88
2024-01-19T18:58:58.773Z,99653.19
2024-01-19T19:04:02.816Z,99773.03
2024-01-19T19:09:07.046Z,100012.00
2024-01-19T19:14:11.317Z,99885.16
2024-01-19T19:19:15.002Z,99758.34
2024-01-19T19:24:18.625Z,99788.31
2024-01-19T19:29:21.657Z,99989.97
2024-01-19T19:34:24.498Z,99927.81
2024-01-19T19:39:27.366Z,99904.09
2024-01-19T19:44:30.293Z,99853.97
2024-01-19T19:49:33.183Z,99899.31
2024-01-19T19:54:36.480Z,99882.22
2024-01-19T19:59:39.413Z,100009.94
2024-01-19T20:04:42.274Z,99825.00
2024-01-19T20:09:45.125Z,99856.06
2024-01-19T20:14:49.302Z,99850.75
2024-01-19T20:19:52.351Z,99840.53
2024-01-19T20:24:55.172Z,99988.31
2024-01-19T20:29:58.074Z,99865.13
2024-01-19T20:35:01.546Z,99853.50
2024-01-19T20:40:07.252Z,99889.41
2024-01-19T20:45:13.402Z,99936.09
2024-01-19T20:50:16.475Z,99749.44
2024-01-19T20:55:19.471Z,99850.81
2024-01-19T21:00:23.775Z,99893.25
2024-01-19T21:05:27.216Z,99863.28
2024-01-19T21:10:30.483Z,99818.00
2024-01-19T21:15:34.690Z,99863.66
2024-01-19T21:20:37.665Z,99894.63
2024-01-19T21:25:40.892Z,99926.03
2024-01-19T21:30:43.885Z,99827.25
2024-01-19T21:35:47.708Z,99984.09
2024-01-19T21:40:50.797Z,99978.44
2024-01-19T21:45:53.625Z,99906.03
2024-01-19T21:50:57.269Z,99816.53
2024-01-19T21:56:01.533Z,99848.88
2024-01-19T22:01:04.944Z,99793.09
2024-01-19T22:06:09.985Z,99737.31
2024-01-19T22:11:13.111Z,99720.06
2024-01-19T22:16:17.850Z,99896.66
2024-01-19T22:21:21.219Z,99970.59
2024-01-19T22:26:24.200Z,99937.41
2024-01-19T22:31:27.237Z,99987.34
2024-01-19T22:36:30.974Z,99798.53
2024-01-19T22:41:34.058Z,99854.31
2024-01-19T22:46:37.143Z,99786.91
2024-01-19T22:51:40.423Z,99969.75
2024-01-19T22:56:43.627Z,100018.59
2024-01-19T23:01:48.445Z,99729.78
2024-01-19T23:06:51.463Z,99758.00
2024-01-19T23:11:54.606Z,99844.53
2024-01-19T23:16:57.844Z,99967.50
2024-01-19T23:22:01.924Z,99892.53
2024-01-19T23:27:05.414Z,99856.69
2024-01-19T23:32:08.956Z,99710.03
2024-01-19T23:37:12.050Z,99874.59
2024-01-19T23:42:15.241Z,99942.47
2024-01-19T23:47:18.220Z,100083.69
2024-01-19T23:52:21.207Z,99924.22
2024-01-19T23:57:24.083Z,99958.19
